sensor_id;sensor_type;location;lat;lon;timestamp;P1;durP1;ratioP1;P2;durP2;ratioP2
30335;SDS011;17142;47.990;7.846;2022-09-16T00:00:43;8.47;;;7.20;;
30335;SDS011;17142;47.990;7.846;2022-09-16T00:03:10;11.53;;;7.53;;
30335;SDS011;17142;47.990;7.846;2022-09-16T00:05:43;7.20;;;6.43;;
30335;SDS011;17142;47.990;7.846;2022-09-16T00:08:10;11.33;;;7.73;;
30335;SDS011;17142;47.990;7.846;2022-09-16T00:10:36;10.63;;;6.77;;
30335;SDS011;17142;47.990;7.846;2022-09-16T00:13:02;11.00;;;6.93;;
30335;SDS011;17142;47.990;7.846;2022-09-16T00:15:31;9.83;;;7.30;;
30335;SDS011;17142;47.990;7.846;2022-09-16T00:17:57;9.37;;;7.00;;
30335;SDS011;17142;47.990;7.846;2022-09-16T00:20:23;7.97;;;7.17;;
30335;SDS011;17142;47.990;7.846;2022-09-16T00:22:51;7.30;;;6.10;;
30335;SDS011;17142;47.990;7.846;2022-09-16T00:25:18;10.93;;;7.40;;
30335;SDS011;17142;47.990;7.846;2022-09-16T00:27:48;12.23;;;7.97;;
30335;SDS011;17142;47.990;7.846;2022-09-16T00:30:14;10.70;;;7.63;;
30335;SDS011;17142;47.990;7.846;2022-09-16T00:32:42;9.17;;;7.33;;
30335;SDS011;17142;47.990;7.846;2022-09-16T00:35:10;8.07;;;6.57;;
30335;SDS011;17142;47.990;7.846;2022-09-16T00:37:36;9.13;;;7.53;;
30335;SDS011;17142;47.990;7.846;2022-09-16T00:40:02;9.10;;;7.57;;
30335;SDS011;17142;47.990;7.846;2022-09-16T00:42:28;11.67;;;7.40;;
30335;SDS011;17142;47.990;7.846;2022-09-16T00:45:00;10.53;;;7.70;;
30335;SDS011;17142;47.990;7.846;2022-09-16T00:47:42;10.20;;;6.40;;
30335;SDS011;17142;47.990;7.846;2022-09-16T00:50:23;9.80;;;8.70;;
30335;SDS011;17142;47.990;7.846;2022-09-16T00:53:00;11.10;;;7.60;;
30335;SDS011;17142;47.990;7.846;2022-09-16T00:55:27;11.70;;;8.17;;
30335;SDS011;17142;47.990;7.846;2022-09-16T08:45:25;5.57;;;4.07;;
30335;SDS011;17142;47.990;7.846;2022-09-16T08:50:52;3.97;;;3.67;;
30335;SDS011;17142;47.990;7.846;2022-09-16T08:56:15;4.10;;;3.77;;
30335;SDS011;17142;47.990;7.846;2022-09-16T08:58:46;5.23;;;4.13;;
30335;SDS011;17142;47.990;7.846;2022-09-16T09:04:17;4.13;;;3.80;;
30335;SDS011;17142;47.990;7.846;2022-09-16T09:06:47;5.73;;;4.93;;
30335;SDS011;17142;47.990;7.846;2022-09-16T09:09:43;4.80;;;3.77;;
30335;SDS011;17142;47.990;7.846;2022-09-16T09:12:18;3.30;;;3.10;;
30335;SDS011;17142;47.990;7.846;2022-09-16T09:20:32;3.37;;;2.37;;
30335;SDS011;17142;47.990;7.846;2022-09-16T09:26:18;2.33;;;2.13;;
30335;SDS011;17142;47.990;7.846;2022-09-16T09:34:31;3.10;;;1.90;;
30335;SDS011;17142;47.990;7.846;2022-09-16T09:37:29;2.37;;;2.00;;
30335;SDS011;17142;47.990;7.846;2022-09-16T09:52:19;2.53;;;2.07;;
30335;SDS011;17142;47.990;7.846;2022-09-16T09:54:44;2.60;;;1.80;;
30335;SDS011;17142;47.990;7.846;2022-09-16T09:57:17;2.70;;;2.20;;
30335;SDS011;17142;47.990;7.846;2022-09-16T09:59:54;3.43;;;2.03;;
30335;SDS011;17142;47.990;7.846;2022-09-16T10:02:23;3.77;;;2.33;;
30335;SDS011;17142;47.990;7.846;2022-09-16T10:04:49;4.47;;;2.53;;
30335;SDS011;17142;47.990;7.846;2022-09-16T10:07:16;2.50;;;2.30;;
30335;SDS011;17142;47.990;7.846;2022-09-16T10:09:55;2.77;;;2.40;;
30335;SDS011;17142;47.990;7.846;2022-09-16T10:12:34;6.80;;;2.30;;
30335;SDS011;17142;47.990;7.846;2022-09-16T10:15:02;3.93;;;2.17;;
30335;SDS011;17142;47.990;7.846;2022-09-16T10:17:29;2.67;;;2.47;;
30335;SDS011;17142;47.990;7.846;2022-09-16T10:19:57;2.60;;;2.40;;
30335;SDS011;17142;47.990;7.846;2022-09-16T10:22:30;3.43;;;2.10;;
30335;SDS011;17142;47.990;7.846;2022-09-16T10:27:30;2.63;;;2.20;;
30335;SDS011;17142;47.990;7.846;2022-09-16T10:35:22;4.73;;;2.80;;
30335;SDS011;17142;47.990;7.846;2022-09-16T10:40:23;3.10;;;2.23;;
30335;SDS011;17142;47.990;7.846;2022-09-16T10:42:52;2.63;;;2.20;;
30335;SDS011;17142;47.990;7.846;2022-09-16T10:45:32;2.50;;;2.30;;
30335;SDS011;17142;47.990;7.846;2022-09-16T10:48:05;2.27;;;2.03;;
30335;SDS011;17142;47.990;7.846;2022-09-16T10:50:35;2.97;;;2.60;;
30335;SDS011;17142;47.990;7.846;2022-09-16T10:53:01;3.00;;;2.70;;
30335;SDS011;17142;47.990;7.846;2022-09-16T10:55:28;2.90;;;2.60;;
30335;SDS011;17142;47.990;7.846;2022-09-16T10:58:32;4.37;;;3.33;;
30335;SDS011;17142;47.990;7.846;2022-09-16T11:14:58;3.00;;;2.60;;
30335;SDS011;17142;47.990;7.846;2022-09-16T11:20:40;5.40;;;2.90;;
30335;SDS011;17142;47.990;7.846;2022-09-16T11:41:46;4.90;;;3.37;;
30335;SDS011;17142;47.990;7.846;2022-09-16T11:58:40;5.40;;;2.40;;
30335;SDS011;17142;47.990;7.846;2022-09-16T12:01:25;2.53;;;2.33;;
30335;SDS011;17142;47.990;7.846;2022-09-16T12:04:03;3.20;;;2.63;;
30335;SDS011;17142;47.990;7.846;2022-09-16T12:09:53;7.00;;;2.90;;
30335;SDS011;17142;47.990;7.846;2022-09-16T12:12:22;3.77;;;2.30;;
30335;SDS011;17142;47.990;7.846;2022-09-16T12:14:54;4.60;;;3.67;;
30335;SDS011;17142;47.990;7.846;2022-09-16T12:17:28;3.10;;;2.80;;
30335;SDS011;17142;47.990;7.846;2022-09-16T12:19:59;3.83;;;2.93;;
30335;SDS011;17142;47.990;7.846;2022-09-16T12:22:35;4.00;;;3.20;;
30335;SDS011;17142;47.990;7.846;2022-09-16T12:25:08;5.73;;;3.53;;
30335;SDS011;17142;47.990;7.846;2022-09-16T12:32:46;4.47;;;3.47;;
30335;SDS011;17142;47.990;7.846;2022-09-16T12:35:29;5.30;;;3.60;;
30335;SDS011;17142;47.990;7.846;2022-09-16T12:38:00;4.20;;;3.80;;
30335;SDS011;17142;47.990;7.846;2022-09-16T12:40:27;6.10;;;3.60;;
30335;SDS011;17142;47.990;7.846;2022-09-16T12:43:46;4.53;;;3.40;;
30335;SDS011;17142;47.990;7.846;2022-09-16T12:48:53;3.77;;;3.47;;
30335;SDS011;17142;47.990;7.846;2022-09-16T13:03:52;4.40;;;3.57;;
30335;SDS011;17142;47.990;7.846;2022-09-16T13:08:54;4.70;;;4.20;;
30335;SDS011;17142;47.990;7.846;2022-09-16T13:11:25;3.93;;;3.33;;
30335;SDS011;17142;47.990;7.846;2022-09-16T13:13:54;5.90;;;5.07;;
30335;SDS011;17142;47.990;7.846;2022-09-16T13:16:35;8.93;;;4.83;;
30335;SDS011;17142;47.990;7.846;2022-09-16T13:21:38;5.40;;;4.20;;
30335;SDS011;17142;47.990;7.846;2022-09-16T13:24:21;8.03;;;4.43;;
30335;SDS011;17142;47.990;7.846;2022-09-16T13:27:28;5.60;;;4.10;;
30335;SDS011;17142;47.990;7.846;2022-09-16T13:35:21;4.20;;;3.80;;
30335;SDS011;17142;47.990;7.846;2022-09-16T13:37:57;3.57;;;3.27;;
30335;SDS011;17142;47.990;7.846;2022-09-16T13:40:25;6.33;;;4.40;;
30335;SDS011;17142;47.990;7.846;2022-09-16T13:45:45;5.23;;;3.90;;
30335;SDS011;17142;47.990;7.846;2022-09-16T13:50:45;4.50;;;4.00;;
30335;SDS011;17142;47.990;7.846;2022-09-16T13:53:19;5.47;;;4.30;;
30335;SDS011;17142;47.990;7.846;2022-09-16T13:55:51;3.87;;;3.53;;
30335;SDS011;17142;47.990;7.846;2022-09-16T13:58:29;5.73;;;4.70;;
30335;SDS011;17142;47.990;7.846;2022-09-16T14:06:21;4.83;;;4.27;;
30335;SDS011;17142;47.990;7.846;2022-09-16T14:14:24;4.73;;;4.33;;
30335;SDS011;17142;47.990;7.846;2022-09-16T14:16:56;9.33;;;6.03;;
30335;SDS011;17142;47.990;7.846;2022-09-16T14:19:24;7.80;;;4.83;;
30335;SDS011;17142;47.990;7.846;2022-09-16T14:24:45;3.87;;;3.47;;
30335;SDS011;17142;47.990;7.846;2022-09-16T14:29:57;4.87;;;4.37;;
30335;SDS011;17142;47.990;7.846;2022-09-16T14:32:26;8.13;;;6.00;;
30335;SDS011;17142;47.990;7.846;2022-09-16T14:34:56;5.80;;;4.57;;
30335;SDS011;17142;47.990;7.846;2022-09-16T14:37:26;7.80;;;5.53;;
30335;SDS011;17142;47.990;7.846;2022-09-16T14:39:54;7.90;;;6.60;;
30335;SDS011;17142;47.990;7.846;2022-09-16T14:42:26;6.27;;;5.13;;
30335;SDS011;17142;47.990;7.846;2022-09-16T14:44:54;6.80;;;5.03;;
30335;SDS011;17142;47.990;7.846;2022-09-16T14:50:02;5.50;;;3.90;;
30335;SDS011;17142;47.990;7.846;2022-09-16T14:52:36;6.33;;;4.93;;
30335;SDS011;17142;47.990;7.846;2022-09-16T14:55:12;4.40;;;4.00;;
30335;SDS011;17142;47.990;7.846;2022-09-16T14:57:47;4.83;;;4.40;;
30335;SDS011;17142;47.990;7.846;2022-09-16T15:00:13;4.40;;;3.90;;
30335;SDS011;17142;47.990;7.846;2022-09-16T15:02:52;4.73;;;4.17;;
30335;SDS011;17142;47.990;7.846;2022-09-16T15:05:26;6.03;;;4.77;;
30335;SDS011;17142;47.990;7.846;2022-09-16T15:08:13;4.33;;;3.83;;
30335;SDS011;17142;47.990;7.846;2022-09-16T15:11:01;5.30;;;3.97;;
30335;SDS011;17142;47.990;7.846;2022-09-16T15:13:37;4.20;;;3.80;;
30335;SDS011;17142;47.990;7.846;2022-09-16T15:16:07;3.73;;;3.43;;
30335;SDS011;17142;47.990;7.846;2022-09-16T15:18:43;6.53;;;4.50;;
30335;SDS011;17142;47.990;7.846;2022-09-16T15:21:22;3.70;;;3.33;;
30335;SDS011;17142;47.990;7.846;2022-09-16T15:23:54;3.20;;;2.90;;
30335;SDS011;17142;47.990;7.846;2022-09-16T15:26:28;6.27;;;3.50;;
30335;SDS011;17142;47.990;7.846;2022-09-16T15:29:26;4.40;;;4.00;;
30335;SDS011;17142;47.990;7.846;2022-09-16T15:37:38;4.80;;;4.33;;
30335;SDS011;17142;47.990;7.846;2022-09-16T15:40:07;4.83;;;4.03;;
30335;SDS011;17142;47.990;7.846;2022-09-16T15:42:45;5.60;;;4.10;;
30335;SDS011;17142;47.990;7.846;2022-09-16T15:45:25;3.73;;;3.43;;
30335;SDS011;17142;47.990;7.846;2022-09-16T15:47:54;23.27;;;17.60;;
30335;SDS011;17142;47.990;7.846;2022-09-16T15:50:26;10.37;;;6.13;;
30335;SDS011;17142;47.990;7.846;2022-09-16T15:53:01;6.17;;;5.53;;
30335;SDS011;17142;47.990;7.846;2022-09-16T16:03:37;4.43;;;4.00;;
30335;SDS011;17142;47.990;7.846;2022-09-16T16:11:57;3.70;;;3.40;;
30335;SDS011;17142;47.990;7.846;2022-09-16T16:14:44;4.67;;;3.20;;
30335;SDS011;17142;47.990;7.846;2022-09-16T16:17:18;5.90;;;4.27;;
30335;SDS011;17142;47.990;7.846;2022-09-16T16:19:48;4.13;;;3.83;;
30335;SDS011;17142;47.990;7.846;2022-09-16T16:22:14;6.03;;;4.47;;
30335;SDS011;17142;47.990;7.846;2022-09-16T16:24:41;4.50;;;3.80;;
30335;SDS011;17142;47.990;7.846;2022-09-16T16:27:07;9.47;;;5.03;;
30335;SDS011;17142;47.990;7.846;2022-09-16T16:29:35;4.43;;;4.03;;
30335;SDS011;17142;47.990;7.846;2022-09-16T16:32:06;4.60;;;4.20;;
30335;SDS011;17142;47.990;7.846;2022-09-16T16:34:41;5.53;;;4.83;;
30335;SDS011;17142;47.990;7.846;2022-09-16T16:37:08;4.90;;;4.23;;
30335;SDS011;17142;47.990;7.846;2022-09-16T16:39:39;8.90;;;4.30;;
30335;SDS011;17142;47.990;7.846;2022-09-16T16:42:08;4.57;;;4.07;;
30335;SDS011;17142;47.990;7.846;2022-09-16T16:44:36;7.10;;;5.10;;
30335;SDS011;17142;47.990;7.846;2022-09-16T16:47:02;5.37;;;4.67;;
30335;SDS011;17142;47.990;7.846;2022-09-16T16:49:32;4.63;;;3.70;;
30335;SDS011;17142;47.990;7.846;2022-09-16T16:52:00;5.53;;;3.93;;
30335;SDS011;17142;47.990;7.846;2022-09-16T16:54:27;6.43;;;4.50;;
30335;SDS011;17142;47.990;7.846;2022-09-16T16:56:53;7.33;;;4.63;;
30335;SDS011;17142;47.990;7.846;2022-09-16T16:59:22;6.10;;;4.70;;
30335;SDS011;17142;47.990;7.846;2022-09-16T17:01:52;4.40;;;3.93;;
30335;SDS011;17142;47.990;7.846;2022-09-16T17:04:19;4.93;;;3.93;;
30335;SDS011;17142;47.990;7.846;2022-09-16T17:06:45;4.03;;;3.60;;
30335;SDS011;17142;47.990;7.846;2022-09-16T17:09:15;3.73;;;3.43;;
30335;SDS011;17142;47.990;7.846;2022-09-16T17:11:52;3.20;;;2.90;;
30335;SDS011;17142;47.990;7.846;2022-09-16T17:14:19;3.70;;;3.10;;
30335;SDS011;17142;47.990;7.846;2022-09-16T17:16:46;4.80;;;3.73;;
30335;SDS011;17142;47.990;7.846;2022-09-16T17:19:13;6.63;;;3.73;;
30335;SDS011;17142;47.990;7.846;2022-09-16T17:21:42;3.43;;;3.13;;
30335;SDS011;17142;47.990;7.846;2022-09-16T17:24:13;4.87;;;3.50;;
30335;SDS011;17142;47.990;7.846;2022-09-16T17:26:40;5.30;;;4.23;;
30335;SDS011;17142;47.990;7.846;2022-09-16T17:29:06;4.00;;;3.60;;
30335;SDS011;17142;47.990;7.846;2022-09-16T17:31:35;5.00;;;4.20;;
30335;SDS011;17142;47.990;7.846;2022-09-16T17:34:04;5.17;;;4.37;;
30335;SDS011;17142;47.990;7.846;2022-09-16T17:36:36;5.87;;;5.30;;
30335;SDS011;17142;47.990;7.846;2022-09-16T17:39:09;4.90;;;4.50;;
30335;SDS011;17142;47.990;7.846;2022-09-16T17:41:45;3.90;;;3.60;;
30335;SDS011;17142;47.990;7.846;2022-09-16T17:44:14;6.27;;;5.10;;
30335;SDS011;17142;47.990;7.846;2022-09-16T17:46:40;4.83;;;4.10;;
30335;SDS011;17142;47.990;7.846;2022-09-16T17:49:17;6.37;;;4.60;;
30335;SDS011;17142;47.990;7.846;2022-09-16T17:51:47;5.50;;;4.80;;
30335;SDS011;17142;47.990;7.846;2022-09-16T17:54:14;8.97;;;5.40;;
30335;SDS011;17142;47.990;7.846;2022-09-16T17:56:40;7.20;;;4.80;;
30335;SDS011;17142;47.990;7.846;2022-09-16T17:59:07;6.90;;;4.60;;
30335;SDS011;17142;47.990;7.846;2022-09-16T18:01:38;6.20;;;5.27;;
30335;SDS011;17142;47.990;7.846;2022-09-16T18:04:03;4.07;;;3.53;;
30335;SDS011;17142;47.990;7.846;2022-09-16T18:06:33;7.10;;;4.23;;
30335;SDS011;17142;47.990;7.846;2022-09-16T18:09:03;3.60;;;3.30;;
30335;SDS011;17142;47.990;7.846;2022-09-16T18:11:31;5.00;;;4.50;;
30335;SDS011;17142;47.990;7.846;2022-09-16T18:13:58;4.77;;;4.30;;
30335;SDS011;17142;47.990;7.846;2022-09-16T18:16:26;5.07;;;3.53;;
30335;SDS011;17142;47.990;7.846;2022-09-16T18:18:54;8.33;;;3.20;;
30335;SDS011;17142;47.990;7.846;2022-09-16T18:21:22;8.47;;;3.03;;
30335;SDS011;17142;47.990;7.846;2022-09-16T18:23:52;3.70;;;3.40;;
30335;SDS011;17142;47.990;7.846;2022-09-16T18:26:22;4.07;;;3.00;;
30335;SDS011;17142;47.990;7.846;2022-09-16T18:28:48;8.27;;;6.23;;
30335;SDS011;17142;47.990;7.846;2022-09-16T18:31:16;5.57;;;5.07;;
30335;SDS011;17142;47.990;7.846;2022-09-16T18:33:46;4.97;;;4.50;;
30335;SDS011;17142;47.990;7.846;2022-09-16T18:36:15;4.57;;;4.17;;
30335;SDS011;17142;47.990;7.846;2022-09-16T18:38:42;6.47;;;4.93;;
30335;SDS011;17142;47.990;7.846;2022-09-16T18:41:14;4.30;;;3.83;;
30335;SDS011;17142;47.990;7.846;2022-09-16T18:43:42;5.43;;;4.00;;
30335;SDS011;17142;47.990;7.846;2022-09-16T18:46:13;5.30;;;3.50;;
30335;SDS011;17142;47.990;7.846;2022-09-16T18:49:05;3.70;;;3.40;;
30335;SDS011;17142;47.990;7.846;2022-09-16T18:51:35;4.70;;;3.30;;
30335;SDS011;17142;47.990;7.846;2022-09-16T18:54:06;3.77;;;3.20;;
30335;SDS011;17142;47.990;7.846;2022-09-16T18:56:35;2.67;;;2.47;;
30335;SDS011;17142;47.990;7.846;2022-09-16T18:59:06;2.70;;;2.50;;
30335;SDS011;17142;47.990;7.846;2022-09-16T19:01:36;4.53;;;3.40;;
30335;SDS011;17142;47.990;7.846;2022-09-16T19:04:04;5.40;;;4.90;;
30335;SDS011;17142;47.990;7.846;2022-09-16T19:06:33;4.03;;;3.63;;
30335;SDS011;17142;47.990;7.846;2022-09-16T19:09:03;5.23;;;3.27;;
30335;SDS011;17142;47.990;7.846;2022-09-16T19:11:31;3.43;;;3.00;;
30335;SDS011;17142;47.990;7.846;2022-09-16T19:14:00;3.30;;;2.40;;
30335;SDS011;17142;47.990;7.846;2022-09-16T19:16:27;3.17;;;2.90;;
30335;SDS011;17142;47.990;7.846;2022-09-16T19:18:53;3.90;;;2.80;;
30335;SDS011;17142;47.990;7.846;2022-09-16T19:21:20;2.87;;;2.67;;
30335;SDS011;17142;47.990;7.846;2022-09-16T19:23:47;3.10;;;2.53;;
30335;SDS011;17142;47.990;7.846;2022-09-16T19:26:27;4.70;;;3.27;;
30335;SDS011;17142;47.990;7.846;2022-09-16T19:28:56;3.43;;;2.97;;
30335;SDS011;17142;47.990;7.846;2022-09-16T19:31:23;4.13;;;3.07;;
30335;SDS011;17142;47.990;7.846;2022-09-16T19:33:49;4.03;;;3.00;;
30335;SDS011;17142;47.990;7.846;2022-09-16T19:36:23;5.03;;;3.17;;
30335;SDS011;17142;47.990;7.846;2022-09-16T19:38:53;5.10;;;3.03;;
30335;SDS011;17142;47.990;7.846;2022-09-16T19:41:20;3.53;;;2.73;;
30335;SDS011;17142;47.990;7.846;2022-09-16T19:43:47;3.90;;;2.53;;
30335;SDS011;17142;47.990;7.846;2022-09-16T19:46:19;2.83;;;2.53;;
30335;SDS011;17142;47.990;7.846;2022-09-16T19:48:45;2.70;;;2.13;;
30335;SDS011;17142;47.990;7.846;2022-09-16T19:51:13;2.53;;;2.13;;
30335;SDS011;17142;47.990;7.846;2022-09-16T19:53:41;5.50;;;2.40;;
30335;SDS011;17142;47.990;7.846;2022-09-16T19:56:11;2.87;;;1.67;;
30335;SDS011;17142;47.990;7.846;2022-09-16T19:58:38;1.83;;;1.27;;
30335;SDS011;17142;47.990;7.846;2022-09-16T20:01:12;3.13;;;1.93;;
30335;SDS011;17142;47.990;7.846;2022-09-16T20:03:40;2.83;;;1.63;;
30335;SDS011;17142;47.990;7.846;2022-09-16T20:06:08;3.30;;;1.30;;
30335;SDS011;17142;47.990;7.846;2022-09-16T20:08:42;2.60;;;1.23;;
30335;SDS011;17142;47.990;7.846;2022-09-16T20:13:37;2.40;;;1.53;;
30335;SDS011;17142;47.990;7.846;2022-09-16T20:16:04;1.30;;;1.00;;
30335;SDS011;17142;47.990;7.846;2022-09-16T20:18:32;3.60;;;3.30;;
30335;SDS011;17142;47.990;7.846;2022-09-16T20:21:20;1.70;;;1.47;;
30335;SDS011;17142;47.990;7.846;2022-09-16T20:23:46;1.30;;;1.20;;
30335;SDS011;17142;47.990;7.846;2022-09-16T20:26:13;1.93;;;1.23;;
30335;SDS011;17142;47.990;7.846;2022-09-16T20:28:46;2.40;;;1.60;;
30335;SDS011;17142;47.990;7.846;2022-09-16T20:31:17;2.50;;;1.53;;
30335;SDS011;17142;47.990;7.846;2022-09-16T20:33:48;1.73;;;1.63;;
30335;SDS011;17142;47.990;7.846;2022-09-16T20:36:14;1.67;;;1.57;;
30335;SDS011;17142;47.990;7.846;2022-09-16T20:38:43;3.07;;;1.67;;
30335;SDS011;17142;47.990;7.846;2022-09-16T20:41:10;5.10;;;1.43;;
30335;SDS011;17142;47.990;7.846;2022-09-16T20:43:39;2.53;;;1.40;;
30335;SDS011;17142;47.990;7.846;2022-09-16T20:46:10;2.10;;;1.47;;
30335;SDS011;17142;47.990;7.846;2022-09-16T20:48:40;1.97;;;1.57;;
30335;SDS011;17142;47.990;7.846;2022-09-16T20:51:10;4.00;;;2.37;;
30335;SDS011;17142;47.990;7.846;2022-09-16T20:53:43;1.97;;;1.40;;
30335;SDS011;17142;47.990;7.846;2022-09-16T20:56:14;1.20;;;1.00;;
30335;SDS011;17142;47.990;7.846;2022-09-16T20:58:42;3.10;;;1.50;;
30335;SDS011;17142;47.990;7.846;2022-09-16T21:01:12;2.33;;;1.60;;
30335;SDS011;17142;47.990;7.846;2022-09-16T21:03:39;2.33;;;1.40;;
30335;SDS011;17142;47.990;7.846;2022-09-16T21:06:07;2.70;;;1.60;;
30335;SDS011;17142;47.990;7.846;2022-09-16T21:08:34;2.43;;;1.20;;
30335;SDS011;17142;47.990;7.846;2022-09-16T21:11:04;2.50;;;1.33;;
30335;SDS011;17142;47.990;7.846;2022-09-16T21:13:36;1.20;;;1.10;;
30335;SDS011;17142;47.990;7.846;2022-09-16T21:16:05;3.20;;;1.93;;
30335;SDS011;17142;47.990;7.846;2022-09-16T21:18:32;4.20;;;1.43;;
30335;SDS011;17142;47.990;7.846;2022-09-16T21:21:05;2.13;;;1.20;;
30335;SDS011;17142;47.990;7.846;2022-09-16T21:23:38;1.67;;;1.20;;
30335;SDS011;17142;47.990;7.846;2022-09-16T21:26:14;3.30;;;1.43;;
30335;SDS011;17142;47.990;7.846;2022-09-16T21:28:44;0.90;;;0.80;;
30335;SDS011;17142;47.990;7.846;2022-09-16T21:31:13;2.33;;;1.33;;
30335;SDS011;17142;47.990;7.846;2022-09-16T21:33:42;4.00;;;1.50;;
30335;SDS011;17142;47.990;7.846;2022-09-16T21:36:09;1.43;;;1.33;;
30335;SDS011;17142;47.990;7.846;2022-09-16T21:38:36;1.93;;;1.73;;
30335;SDS011;17142;47.990;7.846;2022-09-16T21:41:04;1.80;;;1.53;;
30335;SDS011;17142;47.990;7.846;2022-09-16T21:43:32;3.43;;;1.50;;
30335;SDS011;17142;47.990;7.846;2022-09-16T21:46:02;1.10;;;1.00;;
30335;SDS011;17142;47.990;7.846;2022-09-16T21:48:28;1.00;;;0.90;;
30335;SDS011;17142;47.990;7.846;2022-09-16T21:51:01;2.10;;;1.23;;
30335;SDS011;17142;47.990;7.846;2022-09-16T21:53:31;2.10;;;1.00;;
30335;SDS011;17142;47.990;7.846;2022-09-16T21:56:02;1.00;;;0.90;;
30335;SDS011;17142;47.990;7.846;2022-09-16T21:58:31;1.00;;;0.93;;
30335;SDS011;17142;47.990;7.846;2022-09-16T22:01:09;2.03;;;0.80;;
30335;SDS011;17142;47.990;7.846;2022-09-16T22:03:36;1.10;;;1.00;;
